Time;durP1;ratioP1;P1;durP2;ratioP2;P2;SDS_P1;SDS_P2;PMS_P1;PMS_P2;Temp;Humidity;BMP_temperature;BMP_pressure;BME280_temperature;BME280_humidity;BME280_pressure;Samples;Min_cycle;Max_cycle;Signal;HPM_P1;HPM_P2
2024/01/31 00:00:35;;;;;;;21.00;12.70;;;;;;;2.72;72.15;101441.36;129733;1264;106437;-84
2024/01/31 00:04:01;;;;;;;27.90;15.30;;;;;;;2.65;72.18;101443.30;129707;1270;110157;-85
2024/01/31 00:07:07;;;;;;;24.30;13.30;;;;;;;2.60;72.23;101442.27;129719;1270;106579;-85
2024/01/31 00:10:12;;;;;;;23.30;12.90;;;;;;;2.57;72.34;101442.45;129706;1268;108681;-84
2024/01/31 00:13:18;;;;;;;22.70;12.80;;;;;;;2.53;72.43;101443.33;129769;1263;108535;-84
2024/01/31 00:16:24;;;;;;;19.60;12.00;;;;;;;2.49;72.33;101447.35;129747;1264;108424;-84
2024/01/31 00:19:29;;;;;;;20.50;11.10;;;;;;;2.47;72.39;101446.41;129721;1270;108810;-84
2024/01/31 00:22:35;;;;;;;21.20;12.20;;;;;;;2.44;72.46;101449.02;129735;1265;108846;-84
2024/01/31 00:25:40;;;;;;;21.60;12.40;;;;;;;2.40;72.68;101451.67;129688;1264;109256;-84
2024/01/31 00:28:46;;;;;;;19.20;11.90;;;;;;;2.34;72.60;101452.61;129752;1269;108834;-84
2024/01/31 00:31:51;;;;;;;21.00;12.20;;;;;;;2.30;72.48;101450.72;129781;1264;108381;-84
2024/01/31 00:34:57;;;;;;;23.90;12.90;;;;;;;2.26;72.82;101445.45;129721;1264;106525;-84
2024/01/31 00:38:03;;;;;;;21.10;12.20;;;;;;;2.22;72.88;101453.17;129739;1263;108781;-84
2024/01/31 00:41:09;;;;;;;22.10;11.20;;;;;;;2.22;72.99;101454.61;129713;1269;107657;-84
2024/01/31 00:44:15;;;;;;;21.00;11.50;;;;;;;2.23;73.01;101446.45;129727;1270;106420;-84
2024/01/31 00:47:20;;;;;;;17.20;9.30;;;;;;;2.28;72.94;101443.61;129741;1266;108382;-84
2024/01/31 00:50:26;;;;;;;20.90;12.10;;;;;;;2.35;73.02;101445.39;129742;1270;107970;-84
2024/01/31 00:53:31;;;;;;;22.00;11.80;;;;;;;2.43;73.06;101445.02;129751;1265;108636;-83
2024/01/31 00:56:37;;;;;;;20.10;11.70;;;;;;;2.49;73.11;101440.18;129725;1268;108842;-85
2024/01/31 00:59:43;;;;;;;21.30;11.60;;;;;;;2.53;73.02;101439.42;129724;1269;107522;-85
2024/01/31 01:02:49;;;;;;;20.90;12.20;;;;;;;2.54;72.96;101437.46;129833;1263;107794;-85
2024/01/31 01:05:54;;;;;;;23.70;12.30;;;;;;;2.53;73.05;101436.81;129939;1267;107472;-84
2024/01/31 01:09:00;;;;;;;20.70;11.80;;;;;;;2.51;73.09;101440.41;129873;1263;107712;-85
2024/01/31 01:12:06;;;;;;;20.70;11.50;;;;;;;2.50;73.13;101435.21;129991;1267;108445;-85
2024/01/31 01:15:12;;;;;;;21.90;12.40;;;;;;;2.48;73.08;101436.17;129805;1263;108740;-84
2024/01/31 01:18:17;;;;;;;19.40;11.20;;;;;;;2.46;73.09;101432.94;129934;1264;107865;-84
2024/01/31 01:21:23;;;;;;;21.50;11.80;;;;;;;2.44;73.25;101431.44;129946;1264;108500;-85
2024/01/31 01:24:29;;;;;;;20.20;12.30;;;;;;;2.42;73.29;101425.20;129989;1264;106853;-83
2024/01/31 01:27:34;;;;;;;21.40;12.10;;;;;;;2.39;73.40;101420.61;129955;1264;107674;-84
2024/01/31 01:30:40;;;;;;;20.60;11.90;;;;;;;2.37;73.57;101423.86;129928;1264;106776;-82
2024/01/31 01:33:46;;;;;;;21.50;11.50;;;;;;;2.35;73.54;101424.28;129719;1264;108687;-85
2024/01/31 01:36:51;;;;;;;20.80;11.60;;;;;;;2.35;73.76;101417.82;129777;1268;107948;-83
2024/01/31 01:39:57;;;;;;;21.90;11.90;;;;;;;2.35;73.59;101421.68;129703;1264;108706;-84
2024/01/31 01:43:02;;;;;;;21.50;11.00;;;;;;;2.33;73.76;101421.76;129756;1264;107277;-83
2024/01/31 01:46:13;;;;;;;20.70;11.90;;;;;;;2.33;73.73;101421.77;129721;1270;107016;-85
2024/01/31 01:49:19;;;;;;;20.50;11.50;;;;;;;2.36;73.96;101426.18;129678;1270;108834;-84
2024/01/31 01:52:26;;;;;;;18.10;10.10;;;;;;;2.43;73.98;101425.89;129721;1268;108713;-84
2024/01/31 01:55:32;;;;;;;18.20;10.90;;;;;;;2.50;73.87;101420.78;129768;1270;108634;-83
2024/01/31 01:58:38;;;;;;;20.30;11.30;;;;;;;2.58;73.91;101416.55;129793;1264;107712;-84
2024/01/31 02:01:45;;;;;;;21.30;11.60;;;;;;;2.64;73.75;101415.41;129730;1270;107719;-84
2024/01/31 02:04:51;;;;;;;19.30;11.50;;;;;;;2.67;73.90;101412.61;129726;1264;108201;-84
2024/01/31 02:07:57;;;;;;;20.10;11.10;;;;;;;2.67;73.83;101410.48;129737;1269;107767;-84
2024/01/31 02:11:03;;;;;;;22.80;11.50;;;;;;;2.69;73.91;101409.89;129862;1263;109328;-84
2024/01/31 02:14:09;;;;;;;20.90;12.20;;;;;;;2.68;73.97;101409.91;129759;1264;107640;-84
2024/01/31 02:17:14;;;;;;;21.10;12.20;;;;;;;2.67;74.02;101415.44;129681;1270;106585;-85
2024/01/31 02:20:21;;;;;;;21.80;12.70;;;;;;;2.65;74.04;101414.29;129689;1264;106844;-85
2024/01/31 02:23:26;;;;;;;20.60;12.40;;;;;;;2.61;74.01;101409.90;129685;1280;106598;-85
2024/01/31 02:26:32;;;;;;;20.60;11.90;;;;;;;2.60;74.08;101408.39;129756;1268;108628;-85
2024/01/31 02:29:38;;;;;;;18.30;11.30;;;;;;;2.58;74.15;101407.59;129727;1270;107788;-85
2024/01/31 02:32:44;;;;;;;20.40;12.20;;;;;;;2.57;74.39;101411.54;129713;1264;108307;-84
2024/01/31 02:35:49;;;;;;;22.50;12.50;;;;;;;2.54;74.23;101413.05;129754;1268;108651;-85
2024/01/31 02:38:55;;;;;;;21.70;12.40;;;;;;;2.51;74.49;101410.73;129737;1269;108959;-83
2024/01/31 02:42:00;;;;;;;21.80;12.40;;;;;;;2.51;74.55;101410.05;129709;1264;108713;-84
2024/01/31 02:45:08;;;;;;;19.80;11.40;;;;;;;2.53;74.65;101407.99;129701;1264;107727;-84
2024/01/31 02:48:13;;;;;;;20.60;12.20;;;;;;;2.58;74.59;101404.26;129708;1269;108783;-84
2024/01/31 02:51:19;;;;;;;20.90;12.30;;;;;;;2.65;74.74;101406.91;129771;1268;106569;-84
2024/01/31 02:54:25;;;;;;;20.60;12.10;;;;;;;2.72;74.60;101400.63;129695;1264;107773;-85
2024/01/31 02:57:31;;;;;;;23.00;13.20;;;;;;;2.74;74.60;101396.46;129733;1264;107972;-85
2024/01/31 03:00:36;;;;;;;18.80;12.00;;;;;;;2.76;74.49;101396.19;129701;1270;107741;-84
2024/01/31 03:03:42;;;;;;;19.50;12.40;;;;;;;2.76;74.69;101392.49;129936;1263;107004;-84
2024/01/31 03:06:47;;;;;;;19.80;12.20;;;;;;;2.77;74.81;101397.41;129825;1264;106371;-84
2024/01/31 03:09:53;;;;;;;20.90;12.20;;;;;;;2.75;74.77;101394.64;129859;1264;107547;-85
2024/01/31 03:12:58;;;;;;;21.20;12.60;;;;;;;2.73;74.93;101390.00;129817;1266;108619;-84
2024/01/31 03:16:05;;;;;;;20.80;12.50;;;;;;;2.73;74.85;101393.54;129951;1267;107542;-85
2024/01/31 03:19:10;;;;;;;20.40;12.30;;;;;;;2.72;74.82;101390.77;129852;1266;108632;-85
2024/01/31 03:22:16;;;;;;;24.60;13.10;;;;;;;2.71;74.90;101388.38;129911;1267;107278;-85
2024/01/31 03:25:21;;;;;;;22.70;13.00;;;;;;;2.69;74.90;101387.91;129962;1267;107684;-85
2024/01/31 03:28:27;;;;;;;22.00;13.10;;;;;;;2.69;75.15;101386.87;129935;1267;107675;-85
2024/01/31 03:31:32;;;;;;;19.40;11.80;;;;;;;2.70;75.27;101387.70;129996;1264;107655;-85
2024/01/31 03:34:38;;;;;;;21.40;12.40;;;;;;;2.73;75.23;101384.02;129730;1269;108797;-85
2024/01/31 03:37:44;;;;;;;20.90;12.60;;;;;;;2.80;75.14;101385.14;129843;1269;106282;-84
2024/01/31 03:40:50;;;;;;;39.70;22.00;;;;;;;2.85;75.31;101384.88;129699;1269;106846;-82
2024/01/31 03:43:56;;;;;;;38.20;21.50;;;;;;;2.87;75.25;101387.08;129764;1264;106414;-84
2024/01/31 03:47:02;;;;;;;28.80;16.50;;;;;;;2.87;75.35;101386.88;129619;1264;199147;-82
2024/01/31 03:50:09;;;;;;;79.00;39.90;;;;;;;2.87;75.37;101389.02;130052;1263;107800;-81
2024/01/31 03:53:15;;;;;;;87.50;42.00;;;;;;;2.84;75.24;101387.19;130014;1267;106862;-83
2024/01/31 03:56:20;;;;;;;45.70;26.50;;;;;;;2.83;75.40;101390.27;130031;1264;107879;-84
2024/01/31 03:59:26;;;;;;;28.50;16.60;;;;;;;2.80;75.43;101388.48;130185;1263;106665;-83
2024/01/31 04:02:31;;;;;;;28.00;16.90;;;;;;;2.79;75.34;101395.04;129944;1265;106531;-83
2024/01/31 04:05:37;;;;;;;25.70;15.00;;;;;;;2.78;75.40;101399.28;129809;1267;108727;-83
2024/01/31 04:08:43;;;;;;;26.00;15.60;;;;;;;2.77;75.51;101395.11;129926;1267;108429;-82
2024/01/31 04:11:48;;;;;;;22.30;13.20;;;;;;;2.80;75.54;101398.64;129889;1267;108867;-83
2024/01/31 04:14:54;;;;;;;24.20;14.30;;;;;;;2.86;75.84;101396.57;129844;1267;108805;-83
2024/01/31 04:18:01;;;;;;;36.90;18.90;;;;;;;2.95;75.98;101398.06;129873;1264;108183;-83
2024/01/31 04:21:07;;;;;;;66.90;26.50;;;;;;;3.07;75.87;101406.41;129880;1264;108667;-84
2024/01/31 04:24:13;;;;;;;44.10;21.80;;;;;;;3.21;75.91;101411.39;129896;1264;106087;-83
2024/01/31 04:27:19;;;;;;;102.30;47.40;;;;;;;3.33;75.76;101411.48;129852;1263;107881;-81
2024/01/31 04:30:25;;;;;;;34.40;18.70;;;;;;;3.43;75.65;101410.98;129865;1267;106763;-82
2024/01/31 04:33:30;;;;;;;22.50;14.00;;;;;;;3.51;75.77;101414.04;129763;1267;107710;-82
2024/01/31 04:36:36;;;;;;;22.20;13.80;;;;;;;3.56;75.51;101413.98;129706;1264;108587;-82
2024/01/31 04:39:42;;;;;;;21.30;14.40;;;;;;;3.59;75.62;101412.61;129769;1270;108688;-82
2024/01/31 04:42:49;;;;;;;23.20;15.00;;;;;;;3.61;75.65;101410.92;129738;1268;106830;-82
2024/01/31 04:45:55;;;;;;;24.80;14.30;;;;;;;3.63;75.77;101411.52;129782;1269;107701;-83
2024/01/31 04:49:00;;;;;;;82.00;34.10;;;;;;;3.65;75.75;101408.98;129896;1264;108688;-83
2024/01/31 04:52:07;;;;;;;89.60;37.70;;;;;;;3.66;75.77;101417.03;129776;1270;107029;-82
2024/01/31 04:55:14;;;;;;;154.70;63.40;;;;;;;3.66;75.82;101414.52;129895;1265;106917;-84
2024/01/31 04:58:20;;;;;;;54.40;26.10;;;;;;;3.67;75.79;101412.71;129903;1264;108589;-84
2024/01/31 05:01:25;;;;;;;57.00;28.80;;;;;;;3.69;75.97;101409.64;129875;1263;106699;-83
2024/01/31 05:04:31;;;;;;;56.70;25.00;;;;;;;3.69;76.07;101407.33;129874;1267;108832;-84
2024/01/31 05:07:36;;;;;;;38.90;19.30;;;;;;;3.70;76.02;101404.99;129990;1270;108662;-81
2024/01/31 05:10:45;;;;;;;28.90;15.00;;;;;;;3.74;76.19;101408.65;129861;1267;106693;-84
2024/01/31 05:13:51;;;;;;;31.30;18.10;;;;;;;3.81;76.22;101415.02;129963;1263;107678;-83
2024/01/31 05:16:56;;;;;;;31.70;18.10;;;;;;;3.88;76.11;101414.61;129905;1263;106657;-82
2024/01/31 05:20:03;;;;;;;24.60;14.70;;;;;;;3.96;76.16;101409.45;129918;1264;106698;-83
2024/01/31 05:23:08;;;;;;;26.00;15.50;;;;;;;4.01;76.21;101404.60;129903;1267;108663;-83
2024/01/31 05:26:14;;;;;;;25.90;16.20;;;;;;;4.04;76.27;101405.33;129826;1267;108422;-82
2024/01/31 05:29:19;;;;;;;49.50;24.10;;;;;;;4.02;76.30;101402.59;129792;1264;108919;-82
2024/01/31 05:32:25;;;;;;;73.80;35.60;;;;;;;3.98;76.28;101401.79;129849;1267;107106;-83
2024/01/31 05:35:33;;;;;;;39.60;20.80;;;;;;;3.92;76.31;101405.21;129931;1263;108578;-83
2024/01/31 05:38:43;;;;;;;33.20;19.80;;;;;;;3.86;76.38;101406.42;129995;1263;108469;-82
2024/01/31 05:41:49;;;;;;;98.70;48.80;;;;;;;3.80;76.29;101407.66;129961;1264;108649;-82
2024/01/31 05:44:56;;;;;;;114.20;55.70;;;;;;;3.71;76.42;101412.69;129968;1267;107356;-83
2024/01/31 05:48:02;;;;;;;99.20;43.60;;;;;;;3.63;76.40;101416.96;129825;1264;106788;-81
2024/01/31 05:51:24;;;;;;;43.10;22.90;;;;;;;3.58;76.57;101418.12;129830;1263;105527;-83
2024/01/31 05:54:31;;;;;;;68.40;34.70;;;;;;;3.55;76.67;101411.23;129808;1264;107271;-82
2024/01/31 05:57:36;;;;;;;52.70;29.40;;;;;;;3.57;76.68;101417.84;130100;1264;108799;-83
2024/01/31 06:00:44;;;;;;;55.10;31.70;;;;;;;3.59;76.65;101422.63;129814;1264;108653;-83
2024/01/31 06:03:50;;;;;;;56.70;35.20;;;;;;;3.61;76.66;101423.41;129802;1264;106510;-83
2024/01/31 06:06:55;;;;;;;78.30;46.10;;;;;;;3.63;76.65;101426.49;129819;1268;106908;-82
2024/01/31 06:10:03;;;;;;;57.10;35.80;;;;;;;3.63;76.59;101427.39;129831;1270;108487;-81
2024/01/31 06:13:08;;;;;;;41.90;24.80;;;;;;;3.61;76.69;101431.88;129787;1269;108684;-82
2024/01/31 06:16:14;;;;;;;45.50;27.50;;;;;;;3.60;76.62;101432.80;129747;1270;108865;-81
2024/01/31 06:19:20;;;;;;;35.80;22.20;;;;;;;3.58;76.80;101432.19;129787;1264;107532;-81
2024/01/31 06:22:26;;;;;;;37.00;21.10;;;;;;;3.58;76.81;101432.53;129775;1270;107234;-82
2024/01/31 06:25:32;;;;;;;45.70;27.90;;;;;;;3.60;76.95;101433.70;129815;1264;107767;-82
2024/01/31 06:28:38;;;;;;;42.50;24.20;;;;;;;3.62;77.10;101428.13;129932;1265;108557;-82
2024/01/31 06:31:46;;;;;;;24.60;14.80;;;;;;;3.64;76.96;101430.30;129825;1270;108657;-82
2024/01/31 06:34:52;;;;;;;139.80;69.40;;;;;;;3.70;77.15;101428.40;129843;1264;107502;-82
2024/01/31 06:37:58;;;;;;;81.50;44.50;;;;;;;3.78;77.11;101435.40;129839;1270;108904;-82
2024/01/31 06:41:04;;;;;;;65.30;37.90;;;;;;;3.86;77.21;101436.00;129821;1269;107087;-83
2024/01/31 06:44:10;;;;;;;42.10;23.20;;;;;;;3.96;77.09;101441.32;129784;1267;106689;-83
2024/01/31 06:47:15;;;;;;;79.50;40.20;;;;;;;4.02;77.15;101436.59;129884;1267;107338;-83
2024/01/31 06:50:21;;;;;;;186.40;88.70;;;;;;;4.07;77.14;101438.41;129886;1266;107823;-84
2024/01/31 06:53:29;;;;;;;90.80;48.80;;;;;;;4.10;77.17;101434.20;129845;1267;107058;-81
2024/01/31 06:56:34;;;;;;;88.20;50.60;;;;;;;4.13;77.25;101436.54;129860;1263;108711;-81
2024/01/31 06:59:40;;;;;;;48.00;28.70;;;;;;;4.15;77.27;101433.10;129855;1265;107641;-83
2024/01/31 07:02:46;;;;;;;34.20;20.10;;;;;;;4.16;77.30;101439.19;129910;1265;106353;-81
2024/01/31 07:05:52;;;;;;;52.20;32.70;;;;;;;4.18;77.35;101439.42;129816;1267;107756;-82
2024/01/31 07:08:57;;;;;;;59.00;37.20;;;;;;;4.18;77.38;101442.60;129841;1264;107807;-82
2024/01/31 07:12:03;;;;;;;57.40;34.10;;;;;;;4.21;77.44;101441.20;129812;1265;107663;-83
2024/01/31 07:15:10;;;;;;;30.90;18.80;;;;;;;4.27;77.50;101444.23;129900;1267;108667;-82
2024/01/31 07:18:16;;;;;;;57.30;36.30;;;;;;;4.37;77.60;101438.76;129847;1264;109996;-83
2024/01/31 07:21:27;;;;;;;43.20;29.40;;;;;;;4.47;77.38;101438.54;129839;1267;108382;-83
2024/01/31 07:24:33;;;;;;;33.30;21.10;;;;;;;4.56;77.41;101438.22;129830;1264;108589;-83
2024/01/31 07:27:40;;;;;;;30.10;18.30;;;;;;;4.63;77.32;101437.84;129870;1267;108623;-80
2024/01/31 07:30:46;;;;;;;29.10;17.80;;;;;;;4.67;77.25;101438.36;129819;1267;107749;-83
2024/01/31 07:33:52;;;;;;;67.90;31.70;;;;;;;4.69;77.33;101441.39;129941;1264;108770;-83
2024/01/31 07:36:58;;;;;;;100.40;64.50;;;;;;;4.69;77.28;101444.52;129905;1264;106411;-83
2024/01/31 07:40:04;;;;;;;38.60;24.90;;;;;;;4.71;77.39;101440.75;129954;1265;107676;-83
2024/01/31 07:43:10;;;;;;;31.50;18.50;;;;;;;4.70;77.32;101446.94;129875;1267;106512;-84
2024/01/31 07:46:15;;;;;;;31.20;19.60;;;;;;;4.72;77.29;101444.90;129908;1264;106946;-84
2024/01/31 07:49:21;;;;;;;30.50;17.70;;;;;;;4.73;77.41;101450.16;129892;1264;108510;-83
2024/01/31 07:52:26;;;;;;;40.10;19.90;;;;;;;4.73;77.46;101449.10;129909;1265;106528;-83
2024/01/31 07:55:32;;;;;;;86.70;40.70;;;;;;;4.78;77.49;101453.77;129935;1264;107675;-83
2024/01/31 07:58:38;;;;;;;35.50;20.70;;;;;;;4.85;77.59;101451.22;129749;1267;108608;-83
2024/01/31 08:01:43;;;;;;;34.30;21.40;;;;;;;4.94;77.59;101454.08;129686;1270;107478;-84
2024/01/31 08:04:51;;;;;;;28.10;18.20;;;;;;;5.02;77.59;101454.90;129716;1265;106648;-83
2024/01/31 08:07:57;;;;;;;30.40;18.10;;;;;;;5.08;77.51;101455.55;129740;1269;108452;-83
2024/01/31 08:11:06;;;;;;;32.30;21.40;;;;;;;5.14;77.68;101458.24;129723;1264;108696;-83
2024/01/31 08:14:12;;;;;;;26.40;17.40;;;;;;;5.20;77.73;101456.85;129669;1264;108708;-83
2024/01/31 08:17:17;;;;;;;26.90;17.80;;;;;;;5.25;77.71;101457.23;129744;1264;108409;-83
2024/01/31 08:20:23;;;;;;;25.50;16.70;;;;;;;5.31;77.70;101458.13;129705;1264;108273;-83
2024/01/31 08:23:29;;;;;;;28.30;18.30;;;;;;;5.37;77.50;101458.54;129700;1264;108887;-84
2024/01/31 08:26:34;;;;;;;29.70;17.40;;;;;;;5.40;77.72;101458.83;129700;1264;106955;-84
2024/01/31 08:29:40;;;;;;;25.60;15.40;;;;;;;5.44;77.77;101459.47;129761;1264;107699;-83
2024/01/31 08:32:46;;;;;;;28.50;17.10;;;;;;;5.50;77.53;101457.36;129695;1270;107625;-83
2024/01/31 08:35:52;;;;;;;42.80;26.10;;;;;;;5.59;77.66;101465.70;129801;1264;108695;-83
2024/01/31 08:38:57;;;;;;;42.10;24.40;;;;;;;5.71;77.64;101464.10;129961;1267;105591;-83
2024/01/31 08:42:03;;;;;;;50.30;26.20;;;;;;;5.83;77.76;101466.88;129873;1267;107705;-83
2024/01/31 08:45:11;;;;;;;40.30;24.00;;;;;;;5.91;77.38;101468.52;129825;1267;108794;-84
2024/01/31 08:48:18;;;;;;;31.90;20.10;;;;;;;5.98;77.24;101468.50;129926;1265;107771;-83
2024/01/31 08:51:23;;;;;;;29.00;18.70;;;;;;;6.01;77.59;101465.11;129924;1264;108682;-83
2024/01/31 08:54:30;;;;;;;30.90;18.60;;;;;;;6.01;77.39;101466.87;129955;1265;108479;-84
2024/01/31 08:57:36;;;;;;;30.70;18.30;;;;;;;6.01;77.60;101469.02;129982;1267;108654;-76
2024/01/31 09:00:41;;;;;;;28.10;17.10;;;;;;;6.00;77.52;101468.21;129848;1264;109570;-75
2024/01/31 09:03:47;;;;;;;32.90;20.40;;;;;;;6.00;77.56;101467.66;129908;1264;106723;-74
2024/01/31 09:06:53;;;;;;;62.70;37.40;;;;;;;6.02;77.43;101465.09;129872;1267;107866;-75
2024/01/31 09:09:58;;;;;;;47.10;28.50;;;;;;;6.03;77.81;101464.98;129893;1267;108697;-75
2024/01/31 09:13:04;;;;;;;46.90;26.70;;;;;;;6.06;77.58;101470.83;129843;1264;108360;-75
2024/01/31 09:16:10;;;;;;;29.30;16.50;;;;;;;6.09;77.53;101473.61;129822;1267;106356;-74
2024/01/31 09:19:15;;;;;;;39.00;24.90;;;;;;;6.14;77.78;101479.20;129639;1267;107507;-73
2024/01/31 09:22:21;;;;;;;198.10;85.50;;;;;;;6.21;77.87;101481.95;129755;1267;108790;-74
2024/01/31 09:25:27;;;;;;;52.20;28.50;;;;;;;6.29;77.55;101481.95;129702;1267;107559;-74
2024/01/31 09:28:32;;;;;;;37.60;20.90;;;;;;;6.37;77.94;101485.19;129744;1267;108658;-73
2024/01/31 09:31:38;;;;;;;34.50;22.60;;;;;;;6.43;77.78;101484.45;129932;1267;106369;-73
2024/01/31 09:34:43;;;;;;;29.70;19.70;;;;;;;6.48;77.73;101475.95;129888;1264;107247;-74
2024/01/31 09:37:49;;;;;;;27.30;17.70;;;;;;;6.55;77.59;101468.67;129891;1275;108729;-73
2024/01/31 09:40:55;;;;;;;28.60;16.80;;;;;;;6.63;77.58;101466.55;129871;1267;106887;-73
2024/01/31 09:44:01;;;;;;;24.30;16.10;;;;;;;6.71;77.64;101463.05;129729;1264;108673;-74
2024/01/31 09:47:09;;;;;;;30.10;19.70;;;;;;;6.80;77.92;101460.73;129637;1267;108881;-73
2024/01/31 09:50:15;;;;;;;27.10;18.20;;;;;;;6.87;77.80;101462.56;129815;1270;107604;-74
2024/01/31 09:53:23;;;;;;;49.10;30.50;;;;;;;6.93;77.61;101460.80;129853;1267;105884;-73
2024/01/31 09:56:31;;;;;;;27.70;19.80;;;;;;;6.94;77.77;101457.66;129858;1279;106267;-74
2024/01/31 09:59:38;;;;;;;24.20;15.50;;;;;;;6.96;78.03;101458.95;129697;1264;106713;-73
2024/01/31 10:02:44;;;;;;;24.60;16.80;;;;;;;7.01;77.94;101458.43;129583;1270;108731;-73
2024/01/31 10:05:50;;;;;;;50.30;25.40;;;;;;;7.06;78.10;101461.48;129571;1270;107689;-74
2024/01/31 10:08:56;;;;;;;83.80;35.50;;;;;;;7.14;78.31;101459.77;129592;1270;107631;-74
2024/01/31 10:12:02;;;;;;;102.70;53.60;;;;;;;7.20;78.27;101458.84;129606;1269;108686;-74
2024/01/31 10:15:10;;;;;;;31.20;18.90;;;;;;;7.25;77.95;101459.89;129576;1268;107874;-74
2024/01/31 10:18:17;;;;;;;25.40;16.40;;;;;;;7.29;77.91;101453.79;129616;1269;108726;-74
2024/01/31 10:21:23;;;;;;;24.90;16.20;;;;;;;7.29;77.71;101450.80;129576;1277;108630;-74
2024/01/31 10:24:29;;;;;;;23.10;15.00;;;;;;;7.27;77.81;101452.14;129631;1270;106724;-74
2024/01/31 10:27:35;;;;;;;26.80;19.80;;;;;;;7.28;77.64;101445.17;129592;1270;108728;-74
2024/01/31 10:30:45;;;;;;;35.40;22.50;;;;;;;7.26;77.80;101442.88;129578;1270;107790;-74
2024/01/31 10:33:51;;;;;;;49.90;24.70;;;;;;;7.22;77.88;101439.38;129574;1270;108198;-74
2024/01/31 10:36:57;;;;;;;59.50;25.10;;;;;;;7.21;77.79;101432.58;129547;1269;108543;-74
2024/01/31 10:40:04;;;;;;;106.10;49.00;;;;;;;7.21;78.08;101430.05;129603;1270;108443;-73
2024/01/31 10:43:10;;;;;;;41.20;20.80;;;;;;;7.25;78.20;101422.58;129561;1270;107653;-73
2024/01/31 10:46:16;;;;;;;23.70;15.50;;;;;;;7.33;77.84;101417.23;129615;1270;108544;-74
2024/01/31 10:49:22;;;;;;;20.50;13.70;;;;;;;7.41;77.75;101420.05;129625;1269;108696;-74
2024/01/31 10:52:33;;;;;;;21.20;14.10;;;;;;;7.45;77.69;101418.52;129590;1278;108725;-74
2024/01/31 10:55:40;;;;;;;19.80;13.40;;;;;;;7.47;77.67;101417.52;129654;1270;107951;-73
2024/01/31 10:58:47;;;;;;;19.40;13.30;;;;;;;7.47;77.53;101412.19;129630;1263;106667;-74
2024/01/31 11:01:58;;;;;;;19.70;13.40;;;;;;;7.50;77.50;101410.97;129731;1267;108822;-76
2024/01/31 11:05:04;;;;;;;20.00;13.50;;;;;;;7.53;77.41;101409.58;129592;1264;108711;-74
2024/01/31 11:08:20;;;;;;;20.00;14.30;;;;;;;7.56;77.55;101407.73;129638;1270;106912;-74
2024/01/31 11:11:25;;;;;;;22.60;13.80;;;;;;;7.58;77.52;101412.86;129638;1264;108436;-73
2024/01/31 11:14:32;;;;;;;22.50;14.70;;;;;;;7.61;77.42;101419.61;129607;1270;108724;-74
2024/01/31 11:17:44;;;;;;;22.10;14.00;;;;;;;7.58;77.07;101422.30;129662;1270;106789;-74
2024/01/31 11:20:51;;;;;;;21.40;13.70;;;;;;;7.60;77.20;101413.08;129661;1270;107714;-74
2024/01/31 11:23:58;;;;;;;21.40;13.10;;;;;;;7.68;77.53;101409.00;129652;1269;109476;-74
2024/01/31 11:27:05;;;;;;;22.80;14.50;;;;;;;7.79;77.20;101406.45;129601;1277;109152;-74
2024/01/31 11:30:13;;;;;;;21.80;14.30;;;;;;;7.83;76.86;101400.73;129648;1269;106513;-74
2024/01/31 11:33:20;;;;;;;25.10;14.70;;;;;;;7.89;76.84;101396.77;129626;1270;108730;-73
2024/01/31 11:36:26;;;;;;;22.20;14.40;;;;;;;8.00;77.20;101395.13;129653;1270;105873;-74
2024/01/31 11:39:32;;;;;;;23.50;14.80;;;;;;;8.11;76.91;101389.70;129626;1278;105989;-74
2024/01/31 11:42:37;;;;;;;36.10;25.00;;;;;;;8.15;76.78;101385.88;129617;1278;107073;-74
2024/01/31 11:45:43;;;;;;;23.50;15.70;;;;;;;8.17;76.68;101381.11;129664;1270;108395;-74
2024/01/31 11:48:50;;;;;;;20.70;14.50;;;;;;;8.18;76.75;101382.84;129606;1268;107732;-74
2024/01/31 11:51:55;;;;;;;20.70;14.50;;;;;;;8.18;76.88;101381.74;129585;1277;108847;-74
2024/01/31 11:55:01;;;;;;;19.70;13.60;;;;;;;8.19;76.82;101372.31;129602;1270;107747;-74
2024/01/31 11:58:07;;;;;;;18.30;12.80;;;;;;;8.18;76.90;101367.08;129599;1270;108570;-74
2024/01/31 12:01:13;;;;;;;18.50;12.40;;;;;;;8.18;76.60;101363.16;129589;1278;108668;-74
2024/01/31 12:04:22;;;;;;;17.20;11.60;;;;;;;8.11;76.66;101364.56;129779;1270;108494;-74
2024/01/31 12:07:28;;;;;;;20.60;14.40;;;;;;;8.01;76.59;101371.65;129829;1267;108663;-74
2024/01/31 12:10:33;;;;;;;21.10;12.20;;;;;;;8.00;76.88;101369.96;129794;1267;108870;-74
2024/01/31 12:13:39;;;;;;;15.30;10.10;;;;;;;8.02;76.54;101372.30;129890;1268;108696;-74
2024/01/31 12:16:45;;;;;;;17.40;10.80;;;;;;;8.03;76.63;101373.42;129764;1278;107678;-74
2024/01/31 12:19:51;;;;;;;18.00;11.70;;;;;;;8.11;76.69;101376.27;129775;1267;108338;-73
2024/01/31 12:22:57;;;;;;;16.60;11.00;;;;;;;8.20;76.62;101374.36;129763;1267;108638;-73
2024/01/31 12:26:03;;;;;;;20.00;12.60;;;;;;;8.28;76.27;101375.92;129801;1267;107788;-73
2024/01/31 12:29:09;;;;;;;17.70;12.10;;;;;;;8.30;76.00;101376.88;129819;1267;106904;-73
2024/01/31 12:32:15;;;;;;;19.40;12.80;;;;;;;8.27;76.17;101371.38;129806;1277;108685;-74
2024/01/31 12:35:22;;;;;;;20.20;13.40;;;;;;;8.23;76.32;101368.80;129564;1277;109486;-74
2024/01/31 12:38:28;;;;;;;21.10;13.80;;;;;;;8.19;76.34;101369.08;129700;1270;106736;-74
2024/01/31 12:41:33;;;;;;;19.60;12.60;;;;;;;8.16;76.25;101367.89;129710;1271;108654;-74
2024/01/31 12:44:39;;;;;;;20.40;13.00;;;;;;;8.08;76.03;101370.40;129592;1269;107574;-74
2024/01/31 12:47:48;;;;;;;19.80;13.10;;;;;;;8.05;76.48;101371.48;129676;1264;108036;-74
2024/01/31 12:50:55;;;;;;;19.30;12.70;;;;;;;8.12;76.64;101375.48;129764;1268;108751;-74
2024/01/31 12:54:01;;;;;;;20.00;12.00;;;;;;;8.14;76.62;101370.91;129730;1270;108590;-74
2024/01/31 12:57:08;;;;;;;22.00;13.10;;;;;;;8.16;76.54;101368.29;129676;1271;108502;-72
2024/01/31 13:00:15;;;;;;;22.80;13.30;;;;;;;8.22;76.60;101367.33;129594;1270;107849;-74
2024/01/31 13:03:21;;;;;;;25.40;14.30;;;;;;;8.25;76.49;101368.86;129792;1267;108725;-74
2024/01/31 13:06:27;;;;;;;19.50;12.80;;;;;;;8.27;76.59;101366.59;129710;1270;106476;-74
2024/01/31 13:09:32;;;;;;;16.90;11.90;;;;;;;8.25;76.13;101368.30;129770;1270;108667;-75
2024/01/31 13:12:38;;;;;;;16.20;11.00;;;;;;;8.12;75.81;101374.95;129817;1264;107740;-74
2024/01/31 13:15:44;;;;;;;18.10;11.50;;;;;;;7.98;76.44;101374.02;129804;1277;107803;-75
2024/01/31 13:18:50;;;;;;;16.10;10.80;;;;;;;7.91;76.33;101371.29;129770;1267;107448;-74
2024/01/31 13:21:56;;;;;;;17.50;10.90;;;;;;;7.80;76.55;101372.75;129723;1270;108685;-76
2024/01/31 13:25:05;;;;;;;16.30;11.40;;;;;;;7.77;76.95;101372.39;129784;1270;108209;-74
2024/01/31 13:28:14;;;;;;;16.30;9.80;;;;;;;7.72;77.00;101371.07;129754;1267;108328;-74
2024/01/31 13:31:20;;;;;;;15.20;10.20;;;;;;;7.62;77.00;101373.30;129839;1267;108630;-74
2024/01/31 13:34:25;;;;;;;13.50;9.50;;;;;;;7.53;77.17;101376.39;129565;1269;106942;-74
2024/01/31 13:37:31;;;;;;;14.60;10.70;;;;;;;7.52;77.32;101366.38;129646;1270;106416;-74
2024/01/31 13:40:41;;;;;;;20.20;13.30;;;;;;;7.52;77.28;101370.11;129847;1267;107676;-75
2024/01/31 13:43:46;;;;;;;35.90;18.30;;;;;;;7.50;77.25;101364.59;129653;1270;107208;-74
2024/01/31 13:46:52;;;;;;;18.30;11.60;;;;;;;7.50;77.35;101363.54;129742;1267;106100;-73
2024/01/31 13:49:57;;;;;;;16.30;11.30;;;;;;;7.48;77.56;101359.04;129660;1267;108797;-75
2024/01/31 13:53:03;;;;;;;16.70;10.90;;;;;;;7.44;77.70;101353.13;129744;1267;107733;-75
2024/01/31 13:56:09;;;;;;;15.30;10.30;;;;;;;7.38;77.70;101349.07;129887;1276;107576;-75